createdAt,value
2022-11-13T00:01:30.225Z,14.32
2022-11-13T00:03:53.048Z,14.55
2022-11-13T00:06:16.050Z,15.00
2022-11-13T00:08:37.421Z,15.20
2022-11-13T00:11:03.412Z,13.60
2022-11-13T00:13:30.029Z,13.63
2022-11-13T00:15:58.029Z,15.07
2022-11-13T00:18:19.404Z,15.55
2022-11-13T00:20:41.986Z,14.02
2022-11-13T00:23:03.302Z,13.88
2022-11-13T00:25:24.649Z,13.55
2022-11-13T00:27:46.070Z,11.65
2022-11-13T00:30:08.670Z,12.82
2022-11-13T00:32:30.123Z,12.40
2022-11-13T00:34:51.363Z,10.68
2022-11-13T00:37:14.173Z,9.68
2022-11-13T00:39:35.526Z,10.02
2022-11-13T00:41:56.733Z,9.88
2022-11-13T00:44:18.111Z,11.68
2022-11-13T00:46:39.391Z,9.25
2022-11-13T00:49:00.878Z,13.25
2022-11-13T00:51:22.063Z,10.45
2022-11-13T00:53:44.865Z,9.98
2022-11-13T00:56:06.995Z,10.05
2022-11-13T00:58:29.271Z,10.95
2022-11-13T01:00:50.850Z,9.50
2022-11-13T01:03:12.797Z,8.38
2022-11-13T01:05:37.180Z,9.40
2022-11-13T01:07:58.516Z,11.50
2022-11-13T01:10:22.167Z,10.88
2022-11-13T01:12:43.606Z,10.32
2022-11-13T01:15:05.341Z,10.18
2022-11-13T01:17:26.619Z,10.75
2022-11-13T01:19:47.919Z,11.57
2022-11-13T01:22:09.212Z,10.00
2022-11-13T01:24:30.582Z,10.10
2022-11-13T01:26:53.706Z,12.57
2022-11-13T01:29:15.302Z,11.10
2022-11-13T01:31:36.945Z,10.90
2022-11-13T01:33:58.898Z,10.90
2022-11-13T01:36:22.526Z,10.88
2022-11-13T01:38:43.728Z,8.95
2022-11-13T01:41:05.657Z,8.10
2022-11-13T01:43:30.389Z,7.68
2022-11-13T01:46:14.799Z,8.90
2022-11-13T01:48:39.757Z,9.05
2022-11-13T01:51:01.345Z,9.05
2022-11-13T01:53:23.497Z,9.45
2022-11-13T01:55:45.209Z,9.93
2022-11-13T01:58:09.650Z,8.40
2022-11-13T02:00:32.163Z,9.32
2022-11-13T02:02:53.626Z,11.38
2022-11-13T02:05:15.220Z,8.82
2022-11-13T02:07:36.542Z,12.00
2022-11-13T02:09:59.515Z,11.80
2022-11-13T02:12:26.420Z,10.55
2022-11-13T02:14:52.999Z,10.40
2022-11-13T02:17:19.582Z,9.05
2022-11-13T02:19:45.156Z,9.20
2022-11-13T02:22:15.201Z,7.78
2022-11-13T02:24:45.087Z,7.47
2022-11-13T02:27:10.242Z,8.88
2022-11-13T02:29:31.757Z,9.95
2022-11-13T02:31:52.932Z,10.40
2022-11-13T02:34:14.571Z,12.98
2022-11-13T02:36:37.398Z,18.65
2022-11-13T02:39:02.578Z,11.30
2022-11-13T02:41:25.185Z,9.95
2022-11-13T02:43:46.370Z,11.32
2022-11-13T02:46:07.833Z,12.85
2022-11-13T02:48:29.721Z,11.38
2022-11-13T02:50:51.447Z,11.48
2022-11-13T02:53:12.611Z,14.30
2022-11-13T02:55:34.159Z,10.73
2022-11-13T02:57:57.090Z,9.52
2022-11-13T03:00:19.952Z,9.27
2022-11-13T03:02:41.393Z,8.70
2022-11-13T03:05:12.079Z,10.25
2022-11-13T03:07:34.546Z,8.73
2022-11-13T03:09:55.640Z,9.00
2022-11-13T03:12:16.902Z,9.05
2022-11-13T03:14:39.651Z,8.90
2022-11-13T03:17:01.042Z,8.30
2022-11-13T03:19:22.258Z,7.72
2022-11-13T03:21:43.694Z,8.40
2022-11-13T03:24:04.877Z,7.60
2022-11-13T03:26:28.195Z,9.55
2022-11-13T03:28:49.408Z,7.63
2022-11-13T03:31:12.054Z,13.27
2022-11-13T03:33:33.365Z,7.93
2022-11-13T03:35:54.651Z,7.38
2022-11-13T03:38:16.170Z,6.00
2022-11-13T03:40:37.566Z,6.20
2022-11-13T03:42:58.721Z,7.88
2022-11-13T03:45:19.931Z,9.15
2022-11-13T03:47:42.451Z,7.65
2022-11-13T03:50:03.707Z,7.40
2022-11-13T03:52:24.978Z,6.78
2022-11-13T03:54:46.520Z,5.72
2022-11-13T03:57:08.188Z,6.80
2022-11-13T03:59:29.553Z,6.07
2022-11-13T04:01:50.977Z,6.45
2022-11-13T04:04:13.712Z,7.93
2022-11-13T04:06:34.929Z,6.78
2022-11-13T04:08:56.123Z,6.20
2022-11-13T04:11:17.513Z,6.40
2022-11-13T04:13:39.063Z,5.70
2022-11-13T04:16:00.385Z,7.78
2022-11-13T04:18:21.603Z,8.80
2022-11-13T04:20:44.268Z,6.05
2022-11-13T04:23:07.878Z,5.35
2022-11-13T04:25:29.147Z,5.07
2022-11-13T04:27:50.535Z,5.47
2022-11-13T04:30:12.935Z,4.85
2022-11-13T04:32:34.332Z,5.68
2022-11-13T04:34:55.492Z,5.70
2022-11-13T04:37:17.983Z,5.63
2022-11-13T04:39:39.226Z,5.13
2022-11-13T04:42:17.918Z,5.40
2022-11-13T04:44:39.307Z,5.97
2022-11-13T04:47:00.569Z,5.78
2022-11-13T04:49:21.810Z,6.45
2022-11-13T04:51:43.065Z,6.97
2022-11-13T04:54:05.647Z,6.80
2022-11-13T04:56:27.184Z,6.75
2022-11-13T04:58:48.442Z,8.05
2022-11-13T05:01:09.700Z,7.20
2022-11-13T05:03:30.995Z,6.35
2022-11-13T05:05:52.104Z,6.32
2022-11-13T05:08:13.680Z,6.57
2022-11-13T05:10:36.180Z,6.05
2022-11-13T05:12:57.594Z,6.10
2022-11-13T05:15:18.982Z,5.85
2022-11-13T05:17:40.269Z,6.40
2022-11-13T05:20:01.512Z,6.50
2022-11-13T05:22:22.769Z,5.40
2022-11-13T05:24:43.828Z,6.07
2022-11-13T05:27:06.554Z,7.05
2022-11-13T05:29:28.114Z,6.88
2022-11-13T05:31:49.398Z,6.47
2022-11-13T05:34:10.528Z,5.78
2022-11-13T05:36:31.807Z,5.65
2022-11-13T05:38:53.417Z,5.32
2022-11-13T05:41:15.710Z,5.57
2022-11-13T05:43:39.877Z,8.93
2022-11-13T05:46:03.108Z,8.45
2022-11-13T05:48:24.218Z,6.25
2022-11-13T05:50:45.454Z,6.15
2022-11-13T05:53:06.689Z,6.30
2022-11-13T05:55:28.151Z,6.18
2022-11-13T05:57:49.496Z,6.40
2022-11-13T06:00:13.471Z,6.20
2022-11-13T06:02:36.065Z,6.30
2022-11-13T06:04:57.664Z,5.55
2022-11-13T06:07:18.932Z,5.68
2022-11-13T06:09:40.048Z,5.63
2022-11-13T06:12:01.205Z,5.50
2022-11-13T06:14:22.462Z,5.28
2022-11-13T06:16:45.228Z,5.72
2022-11-13T06:19:09.083Z,5.30
2022-11-13T06:21:33.152Z,5.95
2022-11-13T06:23:54.488Z,5.60
2022-11-13T06:26:17.964Z,7.05
2022-11-13T06:28:39.926Z,6.45
2022-11-13T06:31:04.820Z,6.65
2022-11-13T06:33:29.421Z,8.55
2022-11-13T06:35:50.876Z,12.48
2022-11-13T06:38:12.154Z,12.38
2022-11-13T06:40:33.321Z,10.50
2022-11-13T06:42:54.533Z,7.85
2022-11-13T06:45:15.644Z,6.47
2022-11-13T06:47:36.898Z,7.80
2022-11-13T06:49:59.792Z,9.25
2022-11-13T06:52:21.007Z,9.52
2022-11-13T06:54:42.345Z,6.40
2022-11-13T06:57:03.663Z,6.68
2022-11-13T06:59:24.884Z,7.47
2022-11-13T07:01:45.973Z,8.45
2022-11-13T07:04:09.191Z,7.45
2022-11-13T07:06:33.919Z,6.97
2022-11-13T07:08:58.952Z,7.45
2022-11-13T07:11:22.257Z,7.65
2022-11-13T07:13:43.927Z,7.38
2022-11-13T07:16:16.390Z,5.72
2022-11-13T07:18:38.500Z,8.63
2022-11-13T07:21:04.208Z,12.15
2022-11-13T07:23:26.783Z,10.60
2022-11-13T07:25:47.870Z,11.15
2022-11-13T07:28:09.076Z,19.02
2022-11-13T07:30:30.388Z,30.42
2022-11-13T07:32:52.017Z,21.05
2022-11-13T07:35:13.380Z,18.05
2022-11-13T07:37:34.491Z,15.98
2022-11-13T07:39:57.160Z,11.25
2022-11-13T07:42:18.399Z,8.48
2022-11-13T07:44:54.041Z,7.50
2022-11-13T07:47:16.712Z,7.60
2022-11-13T07:49:38.155Z,11.45
2022-11-13T07:51:59.714Z,16.30
2022-11-13T07:54:20.940Z,9.75
2022-11-13T07:56:43.675Z,10.50
2022-11-13T07:59:05.266Z,11.93
2022-11-13T08:01:26.975Z,12.00
2022-11-13T08:03:48.240Z,11.98
2022-11-13T08:06:10.529Z,15.43
2022-11-13T08:08:32.214Z,14.55
2022-11-13T08:10:53.450Z,9.52
2022-11-13T08:13:15.857Z,8.60
2022-11-13T08:15:36.964Z,7.78
2022-11-13T08:17:59.182Z,11.88
2022-11-13T08:20:20.531Z,13.05
2022-11-13T08:22:41.667Z,11.52
2022-11-13T08:25:02.770Z,12.65
2022-11-13T08:27:24.712Z,11.18
2022-11-13T08:29:47.816Z,11.43
2022-11-13T08:32:09.166Z,11.45
2022-11-13T08:34:30.775Z,10.48
2022-11-13T08:36:52.358Z,9.25
2022-11-13T08:39:14.256Z,10.50
2022-11-13T08:41:35.497Z,9.82
2022-11-13T08:43:56.625Z,10.52
2022-11-13T08:46:19.238Z,12.43
2022-11-13T08:48:40.562Z,13.52
2022-11-13T08:51:02.072Z,15.75
2022-11-13T08:53:24.536Z,14.82
2022-11-13T08:55:45.633Z,16.02
2022-11-13T08:58:06.766Z,18.52
2022-11-13T09:00:28.757Z,21.13
2022-11-13T09:02:55.427Z,19.17
2022-11-13T09:05:16.912Z,18.77
2022-11-13T09:07:38.306Z,13.05
2022-11-13T09:09:59.579Z,10.57
2022-11-13T09:12:21.483Z,8.80
2022-11-13T09:14:42.905Z,10.30
2022-11-13T09:17:04.285Z,8.88
2022-11-13T09:19:27.239Z,7.22
2022-11-13T09:21:48.979Z,5.57
2022-11-13T09:24:10.315Z,6.82
2022-11-13T09:26:31.724Z,6.60
2022-11-13T09:28:53.267Z,7.57
2022-11-13T09:31:14.707Z,7.35
2022-11-13T09:33:36.063Z,6.53
2022-11-13T09:35:59.067Z,6.25
2022-11-13T09:38:20.368Z,5.88
2022-11-13T09:40:47.476Z,6.00
2022-11-13T09:43:21.825Z,5.68
2022-11-13T09:45:43.023Z,6.43
2022-11-13T09:48:19.256Z,5.85
2022-11-13T09:50:41.728Z,6.07
2022-11-13T09:53:05.693Z,5.80
2022-11-13T09:55:39.799Z,5.22
2022-11-13T09:58:10.397Z,5.28
2022-11-13T10:00:34.669Z,5.38
2022-11-13T10:03:07.637Z,5.40
2022-11-13T10:05:36.513Z,6.32
2022-11-13T10:08:08.179Z,5.03
2022-11-13T10:10:49.302Z,4.78
2022-11-13T10:13:18.111Z,5.00
2022-11-13T10:15:40.150Z,5.43
2022-11-13T10:18:06.705Z,5.50
2022-11-13T10:20:35.209Z,5.13
2022-11-13T10:23:00.944Z,5.25
2022-11-13T10:25:23.819Z,6.32
2022-11-13T10:27:51.979Z,5.45
2022-11-13T10:30:17.885Z,5.22
2022-11-13T10:32:39.365Z,6.97
2022-11-13T10:35:10.285Z,7.35
2022-11-13T10:37:49.880Z,6.75
2022-11-13T10:40:11.480Z,5.65
2022-11-13T10:42:39.788Z,5.00
2022-11-13T10:45:03.664Z,4.90
2022-11-13T10:48:01.975Z,4.50
2022-11-13T10:50:13.871Z,4.95
2022-11-13T10:52:35.179Z,5.20
2022-11-13T10:55:15.566Z,5.80
2022-11-13T10:57:37.163Z,5.40
2022-11-13T10:59:58.373Z,5.10
2022-11-13T11:02:23.147Z,5.10
2022-11-13T11:04:44.675Z,5.25
2022-11-13T11:07:22.553Z,4.97
2022-11-13T11:09:46.619Z,4.95
2022-11-13T11:12:19.347Z,5.47
2022-11-13T11:14:46.141Z,5.10
2022-11-13T11:17:08.271Z,5.40
2022-11-13T11:19:35.582Z,5.00
2022-11-13T11:22:05.705Z,5.05
2022-11-13T11:24:33.313Z,4.82
2022-11-13T11:27:00.740Z,4.40
2022-11-13T11:29:29.336Z,5.00
2022-11-13T11:31:54.135Z,4.90
2022-11-13T11:34:19.797Z,4.97
2022-11-13T11:36:49.012Z,5.25
2022-11-13T11:39:24.647Z,4.97
2022-11-13T11:41:58.333Z,5.40
2022-11-13T11:44:32.491Z,4.90
2022-11-13T11:46:53.703Z,4.70
2022-11-13T11:49:15.444Z,4.97
2022-11-13T11:51:46.022Z,11.07
2022-11-13T11:54:22.020Z,8.03
2022-11-13T11:56:47.561Z,5.83
2022-11-13T11:59:27.093Z,6.87
2022-11-13T12:02:04.932Z,5.80
2022-11-13T12:04:38.637Z,5.10
2022-11-13T12:07:14.850Z,5.40
2022-11-13T12:09:44.745Z,5.20
2022-11-13T12:12:14.380Z,4.97
2022-11-13T12:14:47.488Z,5.40
2022-11-13T12:17:27.821Z,5.83
2022-11-13T12:19:56.574Z,15.60
2022-11-13T12:22:30.577Z,9.33
2022-11-13T12:25:09.466Z,8.40
2022-11-13T12:27:36.488Z,7.23
2022-11-13T12:30:11.786Z,6.60
2022-11-13T12:32:46.763Z,7.73
2022-11-13T12:35:14.500Z,5.20
2022-11-13T12:37:47.355Z,5.60
2022-11-13T12:40:21.002Z,4.90
2022-11-13T12:42:48.920Z,4.37
2022-11-13T12:45:18.005Z,4.73
2022-11-13T12:47:39.478Z,4.90
2022-11-13T12:50:03.143Z,4.57
2022-11-13T12:52:24.721Z,4.73
2022-11-13T12:54:46.086Z,4.70
2022-11-13T12:57:28.860Z,4.50
2022-11-13T12:59:53.843Z,4.70
2022-11-13T13:02:50.432Z,4.90
2022-11-13T13:05:21.367Z,5.47
2022-11-13T13:08:03.730Z,4.50
2022-11-13T13:10:33.010Z,15.00
2022-11-13T13:13:05.812Z,4.70
2022-11-13T13:15:34.145Z,5.70
2022-11-13T13:18:04.584Z,4.67
2022-11-13T13:20:38.399Z,4.50
2022-11-13T13:23:06.006Z,4.70
2022-11-13T13:25:32.232Z,5.00
2022-11-13T13:27:59.622Z,5.07
2022-11-13T13:30:23.003Z,5.30
2022-11-13T13:33:04.924Z,5.67
2022-11-13T13:35:32.561Z,5.60
2022-11-13T13:37:59.472Z,7.40
2022-11-13T13:40:31.053Z,8.60
2022-11-13T13:43:10.642Z,6.07
2022-11-13T13:45:42.816Z,6.07
2022-11-13T13:48:11.413Z,5.93
2022-11-13T13:50:36.926Z,5.40
2022-11-13T13:53:00.247Z,13.13
2022-11-13T13:55:28.845Z,7.50
2022-11-13T13:57:50.535Z,5.73
2022-11-13T14:00:16.702Z,6.20
2022-11-13T14:02:46.713Z,9.40
2022-11-13T14:05:25.429Z,7.00
2022-11-13T14:07:47.162Z,6.63
2022-11-13T14:10:15.468Z,6.37
2022-11-13T14:12:36.622Z,6.63
2022-11-13T14:14:57.663Z,5.90
2022-11-13T14:17:25.511Z,5.10
2022-11-13T14:19:51.321Z,5.60
2022-11-13T14:22:13.623Z,5.53
2022-11-13T14:24:40.695Z,5.60
2022-11-13T14:27:06.467Z,14.70
2022-11-13T14:29:35.970Z,9.90
2022-11-13T14:32:04.488Z,7.60
2022-11-13T14:34:27.160Z,6.73
2022-11-13T14:36:49.356Z,6.73
2022-11-13T14:39:21.521Z,5.53
2022-11-13T14:41:50.367Z,5.60
2022-11-13T14:44:13.113Z,8.80
2022-11-13T14:46:37.577Z,6.10
2022-11-13T14:48:59.007Z,5.60
2022-11-13T14:51:26.902Z,5.63
2022-11-13T14:53:58.676Z,5.50
2022-11-13T14:56:20.153Z,7.10
2022-11-13T14:58:44.552Z,15.43
2022-11-13T15:01:24.598Z,7.70
2022-11-13T15:03:47.609Z,6.37
2022-11-13T15:06:13.450Z,7.13
2022-11-13T15:08:38.861Z,7.30
2022-11-13T15:11:00.008Z,7.60
2022-11-13T15:13:21.905Z,6.50
2022-11-13T15:15:43.265Z,12.40
2022-11-13T15:18:05.613Z,12.87
2022-11-13T15:20:29.481Z,9.80
2022-11-13T15:22:51.996Z,10.57
2022-11-13T15:25:19.445Z,8.70
2022-11-13T15:27:43.292Z,7.60
2022-11-13T15:30:05.759Z,7.53
2022-11-13T15:32:28.923Z,7.70
2022-11-13T15:34:50.296Z,8.80
2022-11-13T15:37:13.685Z,9.70
2022-11-13T15:39:35.243Z,8.80
2022-11-13T15:41:58.293Z,8.83
2022-11-13T15:44:19.587Z,11.07
2022-11-13T15:46:41.197Z,23.85
2022-11-13T15:49:02.879Z,13.68
2022-11-13T15:51:28.204Z,12.98
2022-11-13T15:53:51.430Z,14.68
2022-11-13T15:56:12.563Z,12.40
2022-11-13T15:58:34.966Z,12.52
2022-11-13T16:00:56.135Z,15.43
2022-11-13T16:03:19.101Z,15.65
2022-11-13T16:05:40.615Z,15.82
2022-11-13T16:08:01.904Z,16.33
2022-11-13T16:10:25.255Z,25.05
2022-11-13T16:12:46.953Z,18.67
2022-11-13T16:15:13.823Z,14.10
2022-11-13T16:17:41.154Z,14.98
2022-11-13T16:20:02.943Z,12.73
2022-11-13T16:22:26.751Z,12.15
2022-11-13T16:24:48.253Z,10.80
2022-11-13T16:27:13.170Z,14.70
2022-11-13T16:29:34.284Z,11.98
2022-11-13T16:31:57.063Z,11.82
2022-11-13T16:34:18.620Z,15.82
2022-11-13T16:36:39.958Z,15.07
2022-11-13T16:39:01.431Z,13.00
2022-11-13T16:41:23.684Z,13.63
2022-11-13T16:43:45.154Z,13.23
2022-11-13T16:46:19.202Z,15.90
2022-11-13T16:48:42.447Z,18.10
2022-11-13T16:51:03.746Z,18.02
2022-11-13T16:53:25.095Z,11.50
2022-11-13T16:55:46.811Z,11.32
2022-11-13T16:58:07.933Z,12.15
2022-11-13T17:00:29.192Z,11.05
2022-11-13T17:02:51.334Z,11.00
2022-11-13T17:05:15.297Z,15.88
2022-11-13T17:07:36.718Z,15.43
2022-11-13T17:10:24.103Z,16.80
2022-11-13T17:12:39.727Z,13.50
2022-11-13T17:15:00.937Z,13.60
2022-11-13T17:17:22.062Z,14.45
2022-11-13T17:19:44.729Z,13.52
2022-11-13T17:22:07.564Z,14.90
2022-11-13T17:24:28.884Z,19.33
2022-11-13T17:26:50.080Z,17.63
2022-11-13T17:29:11.237Z,19.33
2022-11-13T17:31:32.480Z,18.42
2022-11-13T17:33:54.173Z,17.30
2022-11-13T17:36:15.495Z,14.32
2022-11-13T17:38:39.002Z,16.35
2022-11-13T17:41:05.309Z,19.63
2022-11-13T17:43:26.733Z,16.13
2022-11-13T17:45:50.818Z,14.13
2022-11-13T17:48:12.234Z,15.48
2022-11-13T17:50:33.672Z,13.13
2022-11-13T17:52:54.961Z,13.02
2022-11-13T17:55:17.575Z,13.43
2022-11-13T17:57:39.215Z,17.95
2022-11-13T18:00:00.449Z,17.70
2022-11-13T18:02:21.626Z,5.03
2022-11-13T18:04:42.913Z,9.50
2022-11-13T18:07:04.135Z,10.52
2022-11-13T18:09:25.384Z,10.10
2022-11-13T18:11:47.932Z,9.95
2022-11-13T18:14:09.891Z,10.35
2022-11-13T18:16:34.479Z,11.55
2022-11-13T18:19:00.808Z,10.70
2022-11-13T18:21:25.105Z,10.57
2022-11-13T18:23:46.651Z,11.45
2022-11-13T18:26:09.789Z,10.18
2022-11-13T18:28:32.598Z,10.13
2022-11-13T18:30:56.669Z,11.13
2022-11-13T18:33:17.969Z,11.68
2022-11-13T18:35:39.414Z,12.00
2022-11-13T18:38:00.872Z,13.10
2022-11-13T18:40:22.388Z,12.02
2022-11-13T18:42:44.370Z,12.48
2022-11-13T18:45:08.857Z,15.85
2022-11-13T18:47:30.190Z,25.80
2022-11-13T18:49:51.622Z,15.18
2022-11-13T18:52:12.819Z,14.65
2022-11-13T18:54:33.965Z,13.77
2022-11-13T18:56:55.187Z,12.10
2022-11-13T18:59:16.734Z,11.35
2022-11-13T19:01:39.971Z,10.68
2022-11-13T19:06:46.391Z,10.23
2022-11-13T19:09:11.490Z,10.15
2022-11-13T19:11:33.750Z,9.13
2022-11-13T19:13:55.330Z,9.32
2022-11-13T19:16:18.042Z,9.45
2022-11-13T19:18:42.374Z,10.30
2022-11-13T19:21:08.851Z,8.38
2022-11-13T19:23:30.162Z,9.18
2022-11-13T19:25:51.373Z,9.20
2022-11-13T19:28:12.469Z,9.38
2022-11-13T19:30:33.737Z,10.48
2022-11-13T19:32:54.962Z,10.43
2022-11-13T19:35:17.730Z,10.27
2022-11-13T19:37:38.832Z,10.70
2022-11-13T19:40:00.250Z,8.85
2022-11-13T19:42:21.874Z,9.10
2022-11-13T19:44:43.211Z,8.63
2022-11-13T19:47:04.402Z,9.27
2022-11-13T19:49:25.615Z,8.68
2022-11-13T19:51:48.337Z,9.57
2022-11-13T19:54:09.942Z,10.20
2022-11-13T19:56:31.057Z,10.70
2022-11-13T19:58:53.798Z,10.68
2022-11-13T20:01:17.475Z,9.27
2022-11-13T20:03:38.800Z,9.45
2022-11-13T20:06:01.072Z,10.35
2022-11-13T20:08:26.959Z,10.40
2022-11-13T20:10:49.780Z,10.35
2022-11-13T20:13:11.431Z,9.85
2022-11-13T20:15:33.410Z,10.20
2022-11-13T20:17:54.609Z,9.68
2022-11-13T20:20:16.007Z,9.75
2022-11-13T20:22:37.694Z,9.55
2022-11-13T20:25:00.473Z,10.00
2022-11-13T20:27:21.926Z,10.15
2022-11-13T20:29:43.231Z,9.35
2022-11-13T20:32:05.188Z,8.93
2022-11-13T20:34:26.948Z,8.85
2022-11-13T20:36:49.228Z,8.90
2022-11-13T20:39:10.923Z,9.02
2022-11-13T20:41:34.677Z,8.55
2022-11-13T20:44:01.613Z,8.75
2022-11-13T20:46:23.103Z,9.38
2022-11-13T20:48:46.028Z,9.73
2022-11-13T20:51:09.342Z,9.75
2022-11-13T20:53:30.945Z,8.88
2022-11-13T20:55:52.228Z,8.43
2022-11-13T20:58:14.968Z,16.60
2022-11-13T21:00:36.166Z,11.55
2022-11-13T21:02:57.416Z,9.73
2022-11-13T21:05:20.375Z,8.65
2022-11-13T21:07:41.782Z,8.95
2022-11-13T21:10:03.922Z,8.60
2022-11-13T21:12:25.108Z,8.18
2022-11-13T21:14:47.735Z,8.57
2022-11-13T21:17:09.198Z,9.45
2022-11-13T21:19:30.970Z,8.88
2022-11-13T21:21:52.149Z,7.93
2022-11-13T21:24:13.400Z,8.40
2022-11-13T21:26:34.758Z,10.57
2022-11-13T21:28:56.708Z,11.43
2022-11-13T21:31:22.147Z,8.80
2022-11-13T21:33:45.420Z,9.75
2022-11-13T21:36:08.125Z,12.48
2022-11-13T21:38:29.537Z,17.58
2022-11-13T21:41:13.294Z,10.00
2022-11-13T21:43:34.627Z,10.70
2022-11-13T21:45:55.759Z,7.53
2022-11-13T21:48:18.318Z,8.00
2022-11-13T21:50:39.431Z,7.63
2022-11-13T21:53:00.458Z,7.68
2022-11-13T21:55:21.507Z,7.22
2022-11-13T21:57:42.599Z,6.95
2022-11-13T22:00:04.424Z,6.60
2022-11-13T22:02:25.805Z,7.28
2022-11-13T22:04:48.773Z,7.40
2022-11-13T22:07:10.200Z,7.57
2022-11-13T22:09:31.829Z,6.93
2022-11-13T22:11:53.354Z,7.88
2022-11-13T22:14:14.992Z,7.75
2022-11-13T22:16:38.437Z,7.10
2022-11-13T22:19:01.412Z,6.50
2022-11-13T22:21:25.042Z,7.40
2022-11-13T22:23:46.108Z,6.88
2022-11-13T22:26:08.762Z,7.85
2022-11-13T22:28:30.750Z,7.03
2022-11-13T22:30:52.324Z,7.45
2022-11-13T22:33:13.647Z,6.65
2022-11-13T22:35:34.945Z,7.28
2022-11-13T22:37:57.617Z,7.15
2022-11-13T22:40:19.285Z,7.28
2022-11-13T22:42:40.758Z,7.22
2022-11-13T22:45:04.402Z,7.28
2022-11-13T22:47:37.068Z,7.07
2022-11-13T22:50:00.573Z,7.40
2022-11-13T22:52:21.944Z,7.38
2022-11-13T22:54:44.420Z,6.88
2022-11-13T22:57:05.949Z,6.90
2022-11-13T22:59:27.369Z,6.68
2022-11-13T23:01:48.728Z,7.10
2022-11-13T23:04:13.776Z,7.68
2022-11-13T23:06:36.824Z,7.30
2022-11-13T23:08:58.317Z,7.35
2022-11-13T23:11:22.905Z,7.22
2022-11-13T23:13:46.401Z,6.75
2022-11-13T23:16:08.260Z,6.65
2022-11-13T23:18:31.507Z,6.88
2022-11-13T23:20:53.315Z,7.25
2022-11-13T23:23:16.092Z,6.97
2022-11-13T23:25:37.679Z,7.85
2022-11-13T23:28:00.236Z,7.70
2022-11-13T23:30:21.455Z,7.18
2022-11-13T23:32:43.848Z,10.00
2022-11-13T23:35:05.440Z,8.77
2022-11-13T23:37:26.762Z,8.05
2022-11-13T23:39:47.865Z,7.05
2022-11-13T23:42:08.952Z,7.03
2022-11-13T23:44:31.443Z,7.97
2022-11-13T23:46:52.628Z,8.52
2022-11-13T23:49:14.034Z,10.57
2022-11-13T23:51:35.510Z,8.85
2022-11-13T23:53:56.688Z,7.72
2022-11-13T23:56:18.048Z,6.90
2022-11-13T23:58:39.542Z,7.50
